sensor_id;sensor_type;location;lat;lon;timestamp;P1;durP1;ratioP1;P2;durP2;ratioP2
11141;SDS011;5625;50.122;19.864;2023-06-01T00:00:06;5.83;;;2.90;;
11141;SDS011;5625;50.122;19.864;2023-06-01T00:02:36;4.73;;;3.20;;
11141;SDS011;5625;50.122;19.864;2023-06-01T00:05:04;4.13;;;3.13;;
11141;SDS011;5625;50.122;19.864;2023-06-01T00:07:33;3.63;;;3.20;;
11141;SDS011;5625;50.122;19.864;2023-06-01T00:10:01;3.67;;;2.97;;
11141;SDS011;5625;50.122;19.864;2023-06-01T00:12:29;5.50;;;3.50;;
11141;SDS011;5625;50.122;19.864;2023-06-01T00:14:58;3.60;;;3.00;;
11141;SDS011;5625;50.122;19.864;2023-06-01T00:17:26;4.40;;;3.17;;
11141;SDS011;5625;50.122;19.864;2023-06-01T00:19:56;6.23;;;3.27;;
11141;SDS011;5625;50.122;19.864;2023-06-01T00:22:27;4.80;;;3.23;;
11141;SDS011;5625;50.122;19.864;2023-06-01T00:25:00;3.77;;;2.90;;
11141;SDS011;5625;50.122;19.864;2023-06-01T00:27:28;3.30;;;3.00;;
11141;SDS011;5625;50.122;19.864;2023-06-01T00:29:56;4.03;;;2.80;;
11141;SDS011;5625;50.122;19.864;2023-06-01T00:32:25;4.30;;;3.00;;
11141;SDS011;5625;50.122;19.864;2023-06-01T00:34:54;3.70;;;2.90;;
11141;SDS011;5625;50.122;19.864;2023-06-01T00:37:22;3.13;;;2.83;;
11141;SDS011;5625;50.122;19.864;2023-06-01T00:39:50;4.43;;;3.23;;
11141;SDS011;5625;50.122;19.864;2023-06-01T00:42:18;7.43;;;3.17;;
11141;SDS011;5625;50.122;19.864;2023-06-01T00:44:46;3.60;;;2.80;;
11141;SDS011;5625;50.122;19.864;2023-06-01T00:47:14;3.87;;;3.30;;
11141;SDS011;5625;50.122;19.864;2023-06-01T00:49:44;4.37;;;2.90;;
11141;SDS011;5625;50.122;19.864;2023-06-01T00:52:12;5.63;;;3.03;;
11141;SDS011;5625;50.122;19.864;2023-06-01T00:54:42;8.60;;;3.23;;
11141;SDS011;5625;50.122;19.864;2023-06-01T00:57:10;4.77;;;2.97;;
11141;SDS011;5625;50.122;19.864;2023-06-01T00:59:38;3.87;;;3.10;;
11141;SDS011;5625;50.122;19.864;2023-06-01T01:02:06;3.13;;;2.80;;
11141;SDS011;5625;50.122;19.864;2023-06-01T01:04:34;4.77;;;3.20;;
11141;SDS011;5625;50.122;19.864;2023-06-01T01:07:06;4.80;;;3.20;;
11141;SDS011;5625;50.122;19.864;2023-06-01T01:09:49;3.97;;;2.80;;
11141;SDS011;5625;50.122;19.864;2023-06-01T01:12:21;3.40;;;2.87;;
11141;SDS011;5625;50.122;19.864;2023-06-01T01:14:55;4.70;;;3.10;;
11141;SDS011;5625;50.122;19.864;2023-06-01T01:17:28;5.17;;;3.37;;
11141;SDS011;5625;50.122;19.864;2023-06-01T01:20:01;4.20;;;3.20;;
11141;SDS011;5625;50.122;19.864;2023-06-01T01:22:52;3.87;;;2.93;;
11141;SDS011;5625;50.122;19.864;2023-06-01T01:28:37;5.60;;;3.37;;
11141;SDS011;5625;50.122;19.864;2023-06-01T01:31:11;5.07;;;3.67;;
11141;SDS011;5625;50.122;19.864;2023-06-01T01:33:41;6.43;;;5.43;;
11141;SDS011;5625;50.122;19.864;2023-06-01T01:36:10;4.90;;;4.13;;
11141;SDS011;5625;50.122;19.864;2023-06-01T01:38:39;4.40;;;3.60;;
11141;SDS011;5625;50.122;19.864;2023-06-01T01:41:07;4.13;;;3.53;;
11141;SDS011;5625;50.122;19.864;2023-06-01T01:43:37;5.17;;;3.50;;
11141;SDS011;5625;50.122;19.864;2023-06-01T01:46:11;5.10;;;3.43;;
11141;SDS011;5625;50.122;19.864;2023-06-01T01:48:50;3.73;;;3.20;;
11141;SDS011;5625;50.122;19.864;2023-06-01T01:51:24;3.80;;;3.10;;
11141;SDS011;5625;50.122;19.864;2023-06-01T01:53:57;4.93;;;2.90;;
11141;SDS011;5625;50.122;19.864;2023-06-01T01:56:26;3.57;;;3.03;;
11141;SDS011;5625;50.122;19.864;2023-06-01T01:58:56;5.67;;;3.40;;
11141;SDS011;5625;50.122;19.864;2023-06-01T02:01:24;4.37;;;3.30;;
11141;SDS011;5625;50.122;19.864;2023-06-01T02:03:59;4.43;;;3.33;;
11141;SDS011;5625;50.122;19.864;2023-06-01T02:06:28;4.33;;;3.30;;
11141;SDS011;5625;50.122;19.864;2023-06-01T02:08:56;4.93;;;3.10;;
11141;SDS011;5625;50.122;19.864;2023-06-01T02:11:24;4.03;;;3.10;;
11141;SDS011;5625;50.122;19.864;2023-06-01T02:13:53;4.60;;;3.27;;
11141;SDS011;5625;50.122;19.864;2023-06-01T02:16:22;3.97;;;3.40;;
11141;SDS011;5625;50.122;19.864;2023-06-01T02:18:50;3.80;;;3.20;;
11141;SDS011;5625;50.122;19.864;2023-06-01T02:21:19;3.63;;;2.97;;
11141;SDS011;5625;50.122;19.864;2023-06-01T02:23:48;7.03;;;2.97;;
11141;SDS011;5625;50.122;19.864;2023-06-01T02:26:16;4.97;;;3.10;;
11141;SDS011;5625;50.122;19.864;2023-06-01T02:28:45;4.67;;;3.37;;
11141;SDS011;5625;50.122;19.864;2023-06-01T02:31:13;3.50;;;3.20;;
11141;SDS011;5625;50.122;19.864;2023-06-01T02:33:45;4.97;;;2.90;;
11141;SDS011;5625;50.122;19.864;2023-06-01T02:36:13;8.40;;;3.57;;
11141;SDS011;5625;50.122;19.864;2023-06-01T02:38:42;4.93;;;3.27;;
11141;SDS011;5625;50.122;19.864;2023-06-01T02:41:11;4.60;;;3.53;;
11141;SDS011;5625;50.122;19.864;2023-06-01T02:43:39;3.40;;;3.00;;
11141;SDS011;5625;50.122;19.864;2023-06-01T02:46:07;6.67;;;3.37;;
11141;SDS011;5625;50.122;19.864;2023-06-01T02:48:35;5.70;;;3.57;;
11141;SDS011;5625;50.122;19.864;2023-06-01T02:51:05;4.43;;;3.10;;
11141;SDS011;5625;50.122;19.864;2023-06-01T02:53:35;7.93;;;3.50;;
11141;SDS011;5625;50.122;19.864;2023-06-01T02:56:03;4.93;;;3.03;;
11141;SDS011;5625;50.122;19.864;2023-06-01T02:58:32;4.27;;;3.33;;
11141;SDS011;5625;50.122;19.864;2023-06-01T03:01:00;4.67;;;3.43;;
11141;SDS011;5625;50.122;19.864;2023-06-01T03:03:28;5.40;;;3.80;;
11141;SDS011;5625;50.122;19.864;2023-06-01T03:05:56;5.17;;;3.63;;
11141;SDS011;5625;50.122;19.864;2023-06-01T03:08:26;4.60;;;3.57;;
11141;SDS011;5625;50.122;19.864;2023-06-01T03:10:54;4.70;;;3.50;;
11141;SDS011;5625;50.122;19.864;2023-06-01T03:13:22;5.57;;;3.50;;
11141;SDS011;5625;50.122;19.864;2023-06-01T03:15:50;6.20;;;4.23;;
11141;SDS011;5625;50.122;19.864;2023-06-01T03:18:18;6.20;;;3.87;;
11141;SDS011;5625;50.122;19.864;2023-06-01T03:20:46;4.30;;;3.70;;
11141;SDS011;5625;50.122;19.864;2023-06-01T03:23:15;6.40;;;4.17;;
11141;SDS011;5625;50.122;19.864;2023-06-01T03:25:44;6.47;;;4.13;;
11141;SDS011;5625;50.122;19.864;2023-06-01T03:28:12;4.00;;;3.57;;
11141;SDS011;5625;50.122;19.864;2023-06-01T03:30:41;4.80;;;3.87;;
11141;SDS011;5625;50.122;19.864;2023-06-01T03:33:09;5.80;;;3.70;;
11141;SDS011;5625;50.122;19.864;2023-06-01T03:35:37;7.23;;;3.77;;
11141;SDS011;5625;50.122;19.864;2023-06-01T03:38:05;5.40;;;3.87;;
11141;SDS011;5625;50.122;19.864;2023-06-01T03:40:33;3.20;;;2.90;;
11141;SDS011;5625;50.122;19.864;2023-06-01T03:43:03;6.20;;;3.70;;
11141;SDS011;5625;50.122;19.864;2023-06-01T03:45:31;5.20;;;3.13;;
11141;SDS011;5625;50.122;19.864;2023-06-01T03:47:59;4.70;;;3.27;;
11141;SDS011;5625;50.122;19.864;2023-06-01T03:50:27;5.20;;;3.43;;
11141;SDS011;5625;50.122;19.864;2023-06-01T03:52:56;3.73;;;3.23;;
11141;SDS011;5625;50.122;19.864;2023-06-01T03:55:24;4.87;;;3.17;;
11141;SDS011;5625;50.122;19.864;2023-06-01T03:57:55;3.23;;;2.87;;
11141;SDS011;5625;50.122;19.864;2023-06-01T04:00:25;6.90;;;3.40;;
11141;SDS011;5625;50.122;19.864;2023-06-01T04:02:55;6.17;;;3.50;;
11141;SDS011;5625;50.122;19.864;2023-06-01T04:05:25;5.37;;;3.73;;
11141;SDS011;5625;50.122;19.864;2023-06-01T04:07:54;5.43;;;3.80;;
11141;SDS011;5625;50.122;19.864;2023-06-01T04:10:22;7.00;;;4.20;;
11141;SDS011;5625;50.122;19.864;2023-06-01T04:12:50;5.10;;;3.30;;
11141;SDS011;5625;50.122;19.864;2023-06-01T04:15:19;7.10;;;4.07;;
11141;SDS011;5625;50.122;19.864;2023-06-01T04:17:49;7.80;;;3.87;;
11141;SDS011;5625;50.122;19.864;2023-06-01T04:20:17;5.30;;;3.43;;
11141;SDS011;5625;50.122;19.864;2023-06-01T04:22:46;5.53;;;3.67;;
11141;SDS011;5625;50.122;19.864;2023-06-01T04:25:15;6.73;;;4.13;;
11141;SDS011;5625;50.122;19.864;2023-06-01T04:27:48;8.00;;;3.93;;
11141;SDS011;5625;50.122;19.864;2023-06-01T04:30:18;6.70;;;3.63;;
11141;SDS011;5625;50.122;19.864;2023-06-01T04:32:46;11.73;;;4.10;;
11141;SDS011;5625;50.122;19.864;2023-06-01T04:35:20;5.97;;;3.80;;
11141;SDS011;5625;50.122;19.864;2023-06-01T04:37:48;10.47;;;3.63;;
11141;SDS011;5625;50.122;19.864;2023-06-01T04:40:16;7.67;;;3.87;;
11141;SDS011;5625;50.122;19.864;2023-06-01T04:42:44;5.90;;;3.93;;
11141;SDS011;5625;50.122;19.864;2023-06-01T04:45:15;6.93;;;3.73;;
11141;SDS011;5625;50.122;19.864;2023-06-01T04:47:45;7.33;;;3.43;;
11141;SDS011;5625;50.122;19.864;2023-06-01T04:50:14;10.57;;;4.87;;
11141;SDS011;5625;50.122;19.864;2023-06-01T04:52:44;5.60;;;4.00;;
11141;SDS011;5625;50.122;19.864;2023-06-01T04:55:14;7.47;;;3.80;;
11141;SDS011;5625;50.122;19.864;2023-06-01T04:57:43;9.40;;;4.03;;
11141;SDS011;5625;50.122;19.864;2023-06-01T05:00:11;6.73;;;4.17;;
11141;SDS011;5625;50.122;19.864;2023-06-01T05:02:45;7.57;;;4.30;;
11141;SDS011;5625;50.122;19.864;2023-06-01T05:05:14;7.13;;;4.50;;
11141;SDS011;5625;50.122;19.864;2023-06-01T05:07:44;7.40;;;4.37;;
11141;SDS011;5625;50.122;19.864;2023-06-01T05:10:12;7.77;;;4.30;;
11141;SDS011;5625;50.122;19.864;2023-06-01T05:12:41;8.40;;;4.50;;
11141;SDS011;5625;50.122;19.864;2023-06-01T05:15:09;10.33;;;4.27;;
11141;SDS011;5625;50.122;19.864;2023-06-01T05:17:38;10.50;;;4.77;;
11141;SDS011;5625;50.122;19.864;2023-06-01T05:20:07;8.03;;;4.87;;
11141;SDS011;5625;50.122;19.864;2023-06-01T05:22:37;7.30;;;4.30;;
11141;SDS011;5625;50.122;19.864;2023-06-01T05:25:07;7.37;;;5.03;;
11141;SDS011;5625;50.122;19.864;2023-06-01T05:27:36;7.87;;;5.03;;
11141;SDS011;5625;50.122;19.864;2023-06-01T05:30:05;10.30;;;4.87;;
11141;SDS011;5625;50.122;19.864;2023-06-01T05:32:36;12.40;;;5.00;;
11141;SDS011;5625;50.122;19.864;2023-06-01T05:35:05;8.90;;;4.93;;
11141;SDS011;5625;50.122;19.864;2023-06-01T05:37:34;13.70;;;5.30;;
11141;SDS011;5625;50.122;19.864;2023-06-01T05:40:02;10.20;;;5.13;;
11141;SDS011;5625;50.122;19.864;2023-06-01T05:42:35;8.50;;;5.10;;
11141;SDS011;5625;50.122;19.864;2023-06-01T05:45:03;10.67;;;5.40;;
11141;SDS011;5625;50.122;19.864;2023-06-01T05:47:32;16.03;;;5.83;;
11141;SDS011;5625;50.122;19.864;2023-06-01T05:50:00;13.30;;;5.43;;
11141;SDS011;5625;50.122;19.864;2023-06-01T05:52:29;7.10;;;5.07;;
11141;SDS011;5625;50.122;19.864;2023-06-01T05:54:57;9.43;;;5.67;;
11141;SDS011;5625;50.122;19.864;2023-06-01T05:57:25;8.90;;;5.23;;
11141;SDS011;5625;50.122;19.864;2023-06-01T05:59:54;12.67;;;5.33;;
11141;SDS011;5625;50.122;19.864;2023-06-01T06:02:22;11.50;;;5.20;;
11141;SDS011;5625;50.122;19.864;2023-06-01T06:04:50;9.13;;;4.73;;
11141;SDS011;5625;50.122;19.864;2023-06-01T06:07:18;10.00;;;4.90;;
11141;SDS011;5625;50.122;19.864;2023-06-01T06:09:47;8.40;;;4.60;;
11141;SDS011;5625;50.122;19.864;2023-06-01T06:12:15;8.77;;;4.87;;
11141;SDS011;5625;50.122;19.864;2023-06-01T06:14:46;9.83;;;4.47;;
11141;SDS011;5625;50.122;19.864;2023-06-01T06:17:16;6.67;;;4.63;;
11141;SDS011;5625;50.122;19.864;2023-06-01T06:19:44;8.20;;;4.07;;
11141;SDS011;5625;50.122;19.864;2023-06-01T06:22:14;8.70;;;4.60;;
11141;SDS011;5625;50.122;19.864;2023-06-01T06:24:42;10.03;;;4.17;;
11141;SDS011;5625;50.122;19.864;2023-06-01T06:27:10;6.63;;;3.93;;
11141;SDS011;5625;50.122;19.864;2023-06-01T06:29:39;7.73;;;4.70;;
11141;SDS011;5625;50.122;19.864;2023-06-01T06:32:07;9.90;;;4.20;;
11141;SDS011;5625;50.122;19.864;2023-06-01T06:34:37;8.40;;;4.33;;
11141;SDS011;5625;50.122;19.864;2023-06-01T06:37:05;5.10;;;3.77;;
11141;SDS011;5625;50.122;19.864;2023-06-01T06:39:37;7.13;;;4.97;;
11141;SDS011;5625;50.122;19.864;2023-06-01T06:42:05;12.47;;;4.20;;
11141;SDS011;5625;50.122;19.864;2023-06-01T06:44:34;6.77;;;4.20;;
11141;SDS011;5625;50.122;19.864;2023-06-01T06:47:04;6.67;;;3.77;;
11141;SDS011;5625;50.122;19.864;2023-06-01T06:49:33;5.43;;;3.83;;
11141;SDS011;5625;50.122;19.864;2023-06-01T06:52:02;6.63;;;4.03;;
11141;SDS011;5625;50.122;19.864;2023-06-01T06:54:31;6.90;;;4.23;;
11141;SDS011;5625;50.122;19.864;2023-06-01T06:56:59;8.23;;;4.60;;
11141;SDS011;5625;50.122;19.864;2023-06-01T06:59:29;7.20;;;4.07;;
11141;SDS011;5625;50.122;19.864;2023-06-01T07:01:57;10.27;;;4.38;;
11141;SDS011;5625;50.122;19.864;2023-06-01T07:04:25;8.48;;;4.38;;
11141;SDS011;5625;50.122;19.864;2023-06-01T07:06:54;8.30;;;3.80;;
11141;SDS011;5625;50.122;19.864;2023-06-01T07:09:24;6.38;;;3.95;;
11141;SDS011;5625;50.122;19.864;2023-06-01T07:11:52;6.68;;;3.55;;
11141;SDS011;5625;50.122;19.864;2023-06-01T07:14:20;6.60;;;3.72;;
11141;SDS011;5625;50.122;19.864;2023-06-01T07:16:48;8.45;;;3.88;;
11141;SDS011;5625;50.122;19.864;2023-06-01T07:19:16;8.18;;;4.50;;
11141;SDS011;5625;50.122;19.864;2023-06-01T07:21:44;8.52;;;4.43;;
11141;SDS011;5625;50.122;19.864;2023-06-01T07:24:13;6.35;;;3.90;;
11141;SDS011;5625;50.122;19.864;2023-06-01T07:26:46;7.53;;;3.83;;
11141;SDS011;5625;50.122;19.864;2023-06-01T07:29:17;5.75;;;3.80;;
11141;SDS011;5625;50.122;19.864;2023-06-01T07:31:45;9.93;;;4.53;;
11141;SDS011;5625;50.122;19.864;2023-06-01T07:34:13;9.40;;;4.00;;
11141;SDS011;5625;50.122;19.864;2023-06-01T07:36:41;10.02;;;3.78;;
11141;SDS011;5625;50.122;19.864;2023-06-01T07:39:11;7.07;;;3.92;;
11141;SDS011;5625;50.122;19.864;2023-06-01T07:41:40;8.73;;;3.72;;
11141;SDS011;5625;50.122;19.864;2023-06-01T07:44:10;6.05;;;4.07;;
11141;SDS011;5625;50.122;19.864;2023-06-01T07:46:38;6.40;;;3.45;;
11141;SDS011;5625;50.122;19.864;2023-06-01T07:49:06;5.45;;;3.40;;
11141;SDS011;5625;50.122;19.864;2023-06-01T07:51:39;9.43;;;3.47;;
11141;SDS011;5625;50.122;19.864;2023-06-01T07:54:07;4.72;;;3.20;;
11141;SDS011;5625;50.122;19.864;2023-06-01T07:56:35;6.53;;;3.70;;
11141;SDS011;5625;50.122;19.864;2023-06-01T07:59:04;7.75;;;3.80;;
11141;SDS011;5625;50.122;19.864;2023-06-01T08:01:34;8.25;;;3.30;;
11141;SDS011;5625;50.122;19.864;2023-06-01T08:04:03;4.63;;;3.20;;
11141;SDS011;5625;50.122;19.864;2023-06-01T08:06:32;7.03;;;3.60;;
11141;SDS011;5625;50.122;19.864;2023-06-01T08:09:01;3.58;;;3.05;;
11141;SDS011;5625;50.122;19.864;2023-06-01T08:11:31;8.82;;;3.33;;
11141;SDS011;5625;50.122;19.864;2023-06-01T08:14:00;3.65;;;3.13;;
11141;SDS011;5625;50.122;19.864;2023-06-01T08:16:29;6.32;;;2.85;;
11141;SDS011;5625;50.122;19.864;2023-06-01T08:18:59;4.68;;;3.10;;
11141;SDS011;5625;50.122;19.864;2023-06-01T08:21:27;5.03;;;3.38;;
11141;SDS011;5625;50.122;19.864;2023-06-01T08:23:57;5.28;;;2.35;;
11141;SDS011;5625;50.122;19.864;2023-06-01T08:26:25;3.67;;;2.10;;
11141;SDS011;5625;50.122;19.864;2023-06-01T08:28:53;5.35;;;2.40;;
11141;SDS011;5625;50.122;19.864;2023-06-01T08:31:22;4.75;;;2.20;;
11141;SDS011;5625;50.122;19.864;2023-06-01T08:33:52;4.13;;;1.98;;
11141;SDS011;5625;50.122;19.864;2023-06-01T08:36:23;3.72;;;1.80;;
11141;SDS011;5625;50.122;19.864;2023-06-01T08:38:53;4.10;;;1.95;;
11141;SDS011;5625;50.122;19.864;2023-06-01T08:41:24;4.43;;;1.92;;
11141;SDS011;5625;50.122;19.864;2023-06-01T08:43:58;5.53;;;1.95;;
11141;SDS011;5625;50.122;19.864;2023-06-01T08:46:29;2.47;;;1.90;;
11141;SDS011;5625;50.122;19.864;2023-06-01T08:48:59;3.53;;;1.90;;
11141;SDS011;5625;50.122;19.864;2023-06-01T08:51:29;6.40;;;1.98;;
11141;SDS011;5625;50.122;19.864;2023-06-01T08:54:03;4.10;;;2.10;;
11141;SDS011;5625;50.122;19.864;2023-06-01T08:56:33;2.83;;;1.90;;
11141;SDS011;5625;50.122;19.864;2023-06-01T08:59:09;2.58;;;1.75;;
11141;SDS011;5625;50.122;19.864;2023-06-01T09:01:39;2.17;;;1.63;;
11141;SDS011;5625;50.122;19.864;2023-06-01T09:04:08;3.38;;;1.88;;
11141;SDS011;5625;50.122;19.864;2023-06-01T09:06:38;5.00;;;2.22;;
11141;SDS011;5625;50.122;19.864;2023-06-01T09:09:09;5.28;;;1.73;;
11141;SDS011;5625;50.122;19.864;2023-06-01T09:11:37;4.57;;;2.13;;
11141;SDS011;5625;50.122;19.864;2023-06-01T09:14:18;4.63;;;1.88;;
11141;SDS011;5625;50.122;19.864;2023-06-01T09:16:49;4.10;;;2.00;;
11141;SDS011;5625;50.122;19.864;2023-06-01T09:19:18;4.78;;;1.92;;
11141;SDS011;5625;50.122;19.864;2023-06-01T09:24:37;2.70;;;1.80;;
11141;SDS011;5625;50.122;19.864;2023-06-01T09:27:07;2.47;;;2.00;;
11141;SDS011;5625;50.122;19.864;2023-06-01T09:29:35;3.72;;;2.03;;
11141;SDS011;5625;50.122;19.864;2023-06-01T09:32:03;3.17;;;2.10;;
11141;SDS011;5625;50.122;19.864;2023-06-01T09:34:32;4.22;;;2.00;;
11141;SDS011;5625;50.122;19.864;2023-06-01T09:37:13;5.45;;;2.40;;
11141;SDS011;5625;50.122;19.864;2023-06-01T09:39:41;4.20;;;1.95;;
11141;SDS011;5625;50.122;19.864;2023-06-01T09:42:09;2.45;;;2.00;;
11141;SDS011;5625;50.122;19.864;2023-06-01T09:44:38;3.05;;;1.90;;
11141;SDS011;5625;50.122;19.864;2023-06-01T09:47:07;4.88;;;2.30;;
11141;SDS011;5625;50.122;19.864;2023-06-01T09:49:39;2.45;;;2.20;;
11141;SDS011;5625;50.122;19.864;2023-06-01T09:52:09;4.00;;;2.38;;
11141;SDS011;5625;50.122;19.864;2023-06-01T09:54:45;4.10;;;1.90;;
11141;SDS011;5625;50.122;19.864;2023-06-01T09:57:19;2.75;;;2.08;;
11141;SDS011;5625;50.122;19.864;2023-06-01T09:59:49;4.45;;;2.10;;
11141;SDS011;5625;50.122;19.864;2023-06-01T10:02:18;3.78;;;2.28;;
11141;SDS011;5625;50.122;19.864;2023-06-01T10:04:47;3.88;;;2.25;;
11141;SDS011;5625;50.122;19.864;2023-06-01T10:07:17;3.30;;;2.15;;
11141;SDS011;5625;50.122;19.864;2023-06-01T10:09:50;4.97;;;2.05;;
11141;SDS011;5625;50.122;19.864;2023-06-01T10:12:20;5.20;;;2.28;;
11141;SDS011;5625;50.122;19.864;2023-06-01T10:14:49;4.60;;;2.40;;
11141;SDS011;5625;50.122;19.864;2023-06-01T10:17:18;4.13;;;2.50;;
11141;SDS011;5625;50.122;19.864;2023-06-01T10:19:47;4.60;;;2.50;;
11141;SDS011;5625;50.122;19.864;2023-06-01T10:22:15;3.97;;;2.10;;
11141;SDS011;5625;50.122;19.864;2023-06-01T10:24:44;2.58;;;2.28;;
11141;SDS011;5625;50.122;19.864;2023-06-01T10:27:16;5.07;;;2.35;;
11141;SDS011;5625;50.122;19.864;2023-06-01T10:29:47;4.07;;;2.20;;
11141;SDS011;5625;50.122;19.864;2023-06-01T10:38:27;4.25;;;2.35;;
11141;SDS011;5625;50.122;19.864;2023-06-01T10:43:59;3.97;;;2.35;;
11141;SDS011;5625;50.122;19.864;2023-06-01T10:49:11;3.78;;;2.35;;
11141;SDS011;5625;50.122;19.864;2023-06-01T10:51:39;2.92;;;2.00;;
11141;SDS011;5625;50.122;19.864;2023-06-01T10:57:23;4.13;;;2.15;;
11141;SDS011;5625;50.122;19.864;2023-06-01T11:00:12;5.45;;;2.45;;
11141;SDS011;5625;50.122;19.864;2023-06-01T11:02:43;6.03;;;2.33;;
11141;SDS011;5625;50.122;19.864;2023-06-01T11:08:04;6.35;;;2.47;;
11141;SDS011;5625;50.122;19.864;2023-06-01T11:10:53;3.70;;;2.20;;
11141;SDS011;5625;50.122;19.864;2023-06-01T11:13:22;6.55;;;2.75;;
11141;SDS011;5625;50.122;19.864;2023-06-01T11:19:02;3.22;;;2.30;;
11141;SDS011;5625;50.122;19.864;2023-06-01T11:21:38;3.80;;;2.30;;
11141;SDS011;5625;50.122;19.864;2023-06-01T11:24:10;2.67;;;2.25;;
11141;SDS011;5625;50.122;19.864;2023-06-01T11:26:40;5.65;;;2.10;;
11141;SDS011;5625;50.122;19.864;2023-06-01T11:29:13;4.22;;;2.25;;
11141;SDS011;5625;50.122;19.864;2023-06-01T11:31:44;4.15;;;2.60;;
11141;SDS011;5625;50.122;19.864;2023-06-01T11:34:16;4.57;;;2.35;;
11141;SDS011;5625;50.122;19.864;2023-06-01T11:36:46;4.90;;;2.33;;
11141;SDS011;5625;50.122;19.864;2023-06-01T11:39:19;5.95;;;2.45;;
11141;SDS011;5625;50.122;19.864;2023-06-01T11:41:52;3.78;;;2.20;;
11141;SDS011;5625;50.122;19.864;2023-06-01T11:44:31;4.15;;;2.40;;
11141;SDS011;5625;50.122;19.864;2023-06-01T11:47:01;4.57;;;2.35;;
11141;SDS011;5625;50.122;19.864;2023-06-01T11:49:30;4.13;;;2.60;;
11141;SDS011;5625;50.122;19.864;2023-06-01T11:52:00;5.15;;;2.50;;
11141;SDS011;5625;50.122;19.864;2023-06-01T11:54:28;4.03;;;2.40;;
11141;SDS011;5625;50.122;19.864;2023-06-01T11:56:57;4.03;;;2.33;;
11141;SDS011;5625;50.122;19.864;2023-06-01T11:59:25;5.30;;;2.25;;
11141;SDS011;5625;50.122;19.864;2023-06-01T12:01:54;5.85;;;2.58;;
11141;SDS011;5625;50.122;19.864;2023-06-01T12:04:24;3.92;;;2.20;;
11141;SDS011;5625;50.122;19.864;2023-06-01T12:07:03;4.07;;;2.30;;
11141;SDS011;5625;50.122;19.864;2023-06-01T12:09:38;4.40;;;2.83;;
11141;SDS011;5625;50.122;19.864;2023-06-01T12:12:07;5.40;;;2.40;;
11141;SDS011;5625;50.122;19.864;2023-06-01T12:14:38;3.58;;;2.15;;
11141;SDS011;5625;50.122;19.864;2023-06-01T12:17:07;3.08;;;2.15;;
11141;SDS011;5625;50.122;19.864;2023-06-01T12:19:45;3.75;;;2.33;;
11141;SDS011;5625;50.122;19.864;2023-06-01T12:22:14;4.18;;;2.13;;
11141;SDS011;5625;50.122;19.864;2023-06-01T12:24:43;4.65;;;2.17;;
11141;SDS011;5625;50.122;19.864;2023-06-01T12:27:12;4.63;;;2.33;;
11141;SDS011;5625;50.122;19.864;2023-06-01T12:29:42;9.60;;;2.50;;
11141;SDS011;5625;50.122;19.864;2023-06-01T12:32:11;5.60;;;2.20;;
11141;SDS011;5625;50.122;19.864;2023-06-01T12:34:41;4.82;;;2.10;;
11141;SDS011;5625;50.122;19.864;2023-06-01T12:37:17;4.15;;;2.30;;
11141;SDS011;5625;50.122;19.864;2023-06-01T12:39:50;3.22;;;2.33;;
11141;SDS011;5625;50.122;19.864;2023-06-01T12:42:25;7.70;;;2.53;;
11141;SDS011;5625;50.122;19.864;2023-06-01T12:45:04;3.67;;;2.70;;
11141;SDS011;5625;50.122;19.864;2023-06-01T12:47:37;3.00;;;2.40;;
11141;SDS011;5625;50.122;19.864;2023-06-01T12:50:07;4.10;;;2.00;;
11141;SDS011;5625;50.122;19.864;2023-06-01T12:52:39;3.45;;;2.35;;
11141;SDS011;5625;50.122;19.864;2023-06-01T12:55:08;2.90;;;2.30;;
11141;SDS011;5625;50.122;19.864;2023-06-01T12:57:37;3.75;;;2.53;;
11141;SDS011;5625;50.122;19.864;2023-06-01T13:00:05;4.03;;;2.35;;
11141;SDS011;5625;50.122;19.864;2023-06-01T13:02:35;3.50;;;2.30;;
11141;SDS011;5625;50.122;19.864;2023-06-01T13:05:06;3.20;;;1.85;;
11141;SDS011;5625;50.122;19.864;2023-06-01T13:07:35;5.93;;;2.17;;
11141;SDS011;5625;50.122;19.864;2023-06-01T13:10:08;4.03;;;2.20;;
11141;SDS011;5625;50.122;19.864;2023-06-01T13:12:37;5.28;;;2.40;;
11141;SDS011;5625;50.122;19.864;2023-06-01T13:15:08;3.78;;;2.28;;
11141;SDS011;5625;50.122;19.864;2023-06-01T13:17:38;5.47;;;2.40;;
11141;SDS011;5625;50.122;19.864;2023-06-01T13:20:09;4.32;;;2.53;;
11141;SDS011;5625;50.122;19.864;2023-06-01T13:22:39;4.07;;;2.15;;
11141;SDS011;5625;50.122;19.864;2023-06-01T13:25:08;3.42;;;2.15;;
11141;SDS011;5625;50.122;19.864;2023-06-01T13:27:40;3.70;;;2.53;;
11141;SDS011;5625;50.122;19.864;2023-06-01T13:30:09;5.40;;;2.40;;
11141;SDS011;5625;50.122;19.864;2023-06-01T13:32:38;3.70;;;2.03;;
11141;SDS011;5625;50.122;19.864;2023-06-01T13:35:07;3.55;;;2.53;;
11141;SDS011;5625;50.122;19.864;2023-06-01T13:37:35;4.38;;;2.38;;
11141;SDS011;5625;50.122;19.864;2023-06-01T13:40:08;4.30;;;2.40;;
11141;SDS011;5625;50.122;19.864;2023-06-01T13:42:36;3.40;;;2.50;;
11141;SDS011;5625;50.122;19.864;2023-06-01T13:45:05;4.00;;;2.00;;
11141;SDS011;5625;50.122;19.864;2023-06-01T13:47:34;5.53;;;2.40;;
11141;SDS011;5625;50.122;19.864;2023-06-01T13:50:06;7.22;;;2.00;;
11141;SDS011;5625;50.122;19.864;2023-06-01T13:52:37;4.90;;;2.28;;
11141;SDS011;5625;50.122;19.864;2023-06-01T13:55:07;3.67;;;1.90;;
11141;SDS011;5625;50.122;19.864;2023-06-01T13:57:36;3.70;;;2.15;;
11141;SDS011;5625;50.122;19.864;2023-06-01T14:00:05;4.35;;;2.00;;
11141;SDS011;5625;50.122;19.864;2023-06-01T14:02:35;3.25;;;2.10;;
11141;SDS011;5625;50.122;19.864;2023-06-01T14:05:06;5.90;;;2.10;;
11141;SDS011;5625;50.122;19.864;2023-06-01T14:07:45;4.40;;;2.10;;
11141;SDS011;5625;50.122;19.864;2023-06-01T14:10:14;3.55;;;2.20;;
11141;SDS011;5625;50.122;19.864;2023-06-01T14:12:43;3.75;;;1.92;;
11141;SDS011;5625;50.122;19.864;2023-06-01T14:15:12;5.22;;;2.40;;
11141;SDS011;5625;50.122;19.864;2023-06-01T14:17:40;4.07;;;2.33;;
11141;SDS011;5625;50.122;19.864;2023-06-01T14:20:09;3.47;;;2.40;;
11141;SDS011;5625;50.122;19.864;2023-06-01T14:22:37;5.25;;;2.38;;
11141;SDS011;5625;50.122;19.864;2023-06-01T14:25:05;3.80;;;2.20;;
11141;SDS011;5625;50.122;19.864;2023-06-01T14:27:38;5.85;;;2.13;;
11141;SDS011;5625;50.122;19.864;2023-06-01T14:30:07;2.45;;;2.20;;
11141;SDS011;5625;50.122;19.864;2023-06-01T14:32:36;6.28;;;2.30;;
11141;SDS011;5625;50.122;19.864;2023-06-01T14:35:04;4.53;;;2.33;;
11141;SDS011;5625;50.122;19.864;2023-06-01T14:37:38;4.22;;;2.08;;
11141;SDS011;5625;50.122;19.864;2023-06-01T14:40:15;5.75;;;2.33;;
11141;SDS011;5625;50.122;19.864;2023-06-01T14:42:47;4.55;;;2.50;;
11141;SDS011;5625;50.122;19.864;2023-06-01T14:45:17;3.25;;;2.22;;
11141;SDS011;5625;50.122;19.864;2023-06-01T14:47:48;2.45;;;2.13;;
11141;SDS011;5625;50.122;19.864;2023-06-01T14:50:16;6.00;;;2.50;;
11141;SDS011;5625;50.122;19.864;2023-06-01T14:52:44;5.28;;;2.50;;
11141;SDS011;5625;50.122;19.864;2023-06-01T14:55:15;2.78;;;2.10;;
11141;SDS011;5625;50.122;19.864;2023-06-01T14:57:45;5.20;;;2.33;;
11141;SDS011;5625;50.122;19.864;2023-06-01T15:00:15;3.88;;;2.40;;
11141;SDS011;5625;50.122;19.864;2023-06-01T15:02:44;3.95;;;2.53;;
11141;SDS011;5625;50.122;19.864;2023-06-01T15:05:15;2.97;;;2.20;;
11141;SDS011;5625;50.122;19.864;2023-06-01T15:07:43;4.57;;;2.47;;
11141;SDS011;5625;50.122;19.864;2023-06-01T15:10:13;6.78;;;2.10;;
11141;SDS011;5625;50.122;19.864;2023-06-01T15:12:42;5.18;;;2.30;;
11141;SDS011;5625;50.122;19.864;2023-06-01T15:15:11;5.45;;;2.25;;
11141;SDS011;5625;50.122;19.864;2023-06-01T15:17:39;6.55;;;2.30;;
11141;SDS011;5625;50.122;19.864;2023-06-01T15:20:07;5.03;;;2.35;;
11141;SDS011;5625;50.122;19.864;2023-06-01T15:22:36;4.68;;;2.28;;
11141;SDS011;5625;50.122;19.864;2023-06-01T15:25:04;4.38;;;2.45;;
11141;SDS011;5625;50.122;19.864;2023-06-01T15:27:33;4.18;;;2.10;;
11141;SDS011;5625;50.122;19.864;2023-06-01T15:30:02;6.72;;;2.40;;